Aérodrome :
LOGIN :

S'inscrire | Disclaimer

   EN    FR    IT 

 










Légende :    VFR   VFR Marginal   IFR   IFR Intensif   IFR Très Intensif
Visi : 
Plafond : 
>= 8 km
>= 3000ft
5 à 8 km
1000 à 3000 ft
1500m à 5 km
500 à 1000 ft
800 à 1500m
200 à 500 ft
< 800m
< 200 ft
Symboles :   Orages  Brouillard  Fortes neiges  Fortes précipitations  Vent > 20 kt
SIGMETs :   Divers  Orages  Givrage  Turbulence  Onde Orograph.  Cendres Volcan.






- Altitude de l'aérodrome : 15 ft
- Code IATA : BHD


EGAC - George Best Belfast City

DERNIER METAR :
  • 260950Z 26012KT 9999 FEW020CB 04/01 Q1003

METARs EXPIRÉS :
  • 260920Z 26012KT 9999 FEW020CB 04/01 Q1003
  • 260850Z 27009KT 9999 FEW018 FEW020CB 02/01 Q1003
  • 260820Z 26011G26KT 230V300 9999 -RA FEW020CB FEW026 SCT037 03/01 Q1003
  • 260750Z 31008KT 9999 FEW018 FEW020CB 03/00 Q1002
  • 260720Z 32009KT 9999 FEW018 FEW020CB 02/00 Q1001

TAF TAF EGAC
Valide du 26 à 09h jusqu'au 26 à 18h UTC


260756Z 2609/2618 28015KT 9999 FEW012 SCT020
TEMPO 2609/2611 29018G28KT
PROB30
TEMPO 2616/2618 4000 SHRASN SHGS SCT008 BKN014CB
ATIS : +44 02890 935 124



MET'MAP, la Météo Aéronautique d'un coup d'oeil ! - Copyright ORBIFLY Décembre 2007 - Disclaimer

ORBIFLY MET'MAP TEAM :

Programmation & Développement : Alexandra Zaïnal
Sur une idée originale de : Baudouin d'Aumeries
Assistance à la programmation : Marc-Olivier Méhu
Soutien technique & logistique : Manuel Goepfert

Contact : metmap@orbifly.com




SOURCES & CREDITS :

   NOAA